Flight Track Log - Related Links

Times and Time Zones

All times are in EDT time to prevent confusion due to time zone crossing. See the AWE1913 flight status page for this flight to view local times or setup timezone preferences in your user account.

Time Position Orientation Groundspeed Altitude Reporting Facility
EDT Latitude Longitude Course Direction KTS MPH feet Rate Location/Type
Sun 10:28:13 AM 39.8667 -75.2667 180° South 154 177 800  Level Philadelphia TRACON
Sun 10:28:49 AM 39.8333 -75.3000 218° Southwest 175 201 1,900 1,813 Climbing Philadelphia TRACON
Sun 10:29:49 AM 39.8000 -75.3333 218° Southwest 217 250 3,700 2,440 Climbing Philadelphia TRACON
Sun 10:31:00 AM 39.4345 -75.3333 180° South  Level FlightAware Approximate
Sun 10:32:00 AM 39.3226 -75.3456 185° South  Level FlightAware Approximate
Sun 10:32:18 AM 39.6236 -75.3058 173° South 256 295 10,400  Level Washington Center
Sun 10:33:00 AM 39.2129 -75.3667 180° South  Level FlightAware Approximate
Sun 10:33:18 AM 39.5403 -75.3197 187° South 273 314 11,800  Level Washington Center
Sun 10:34:16 AM 39.4550 -75.3389 190° South 298 343 12,000 1,373 Climbing Washington Center
Sun 10:35:16 AM 39.3694 -75.3525 187° South 313 360 14,500 2,450 Climbing Washington Center
Sun 10:36:16 AM 39.2861 -75.3664 187° South 313 360 16,900 1,770 Climbing Washington Center
Sun 10:37:18 AM 39.2028 -75.3800 187° South 313 360 18,100 1,950 Climbing Washington Center
Sun 10:38:16 AM 39.1175 -75.3964 188° South 313 360 20,800 2,300 Climbing Washington Center
Sun 10:39:18 AM 39.0342 -75.4072 186° South 313 360 22,700 1,967 Climbing Washington Center
Sun 10:40:18 AM 38.9506 -75.4236 189° South 313 360 24,800 1,831 Climbing Washington Center
Sun 10:41:16 AM 38.8653 -75.4344 186° South 313 360 26,300 1,881 Climbing Washington Center
Sun 10:42:16 AM 38.7839 -75.4478 187° South 313 360 28,500 1,686 Climbing Washington Center
Sun 10:43:17 AM 38.7006 -75.4586 186° South 313 360 29,700 744 Climbing Washington Center
Sun 10:44:17 AM 38.6131 -75.4722 187° South 313 360 30,000 150 Climbing Washington Center
Sun 10:45:17 AM 38.5172 -75.4856 186° South 333 383 30,000  Level Washington Center
Sun 10:46:15 AM 38.4192 -75.5017 187° South 348 400 30,000  Level Washington Center
Sun 10:47:16 AM 38.3233 -75.5256 191° South 355 409 30,000  Level Washington Center
Sun 10:48:17 AM 38.2439 -75.5547 196° South 362 417 30,000  Level Washington Center
Sun 10:49:16 AM 38.1272 -75.5733 187° South 357 411 30,000  Level Washington Center
Sun 10:50:16 AM 38.0272 -75.5892 187° South 357 411 30,000 -50 Level Washington Center
Sun 10:51:17 AM 37.9292 -75.6050 187° South 357 411 29,900  Descending Washington Center
Sun 10:52:17 AM 37.8436 -75.6392 198° South 338 389 30,000 50 Climbing Washington Center
Sun 10:53:17 AM 37.7603 -75.6864 204° Southwest 331 381 30,000  Level Washington Center
Sun 10:54:18 AM 37.6808 -75.7361 206° Southwest 326 375 30,000  Level Washington Center
Sun 10:55:16 AM 37.5975 -75.7806 203° Southwest 326 375 30,000 454 Level Washington Center
Sun 10:56:17 AM 37.5117 -75.8275 203° Southwest 326 375 30,900 893 Climbing Washington Center
Sun 10:57:17 AM 37.4283 -75.8717 203° Southwest 331 381 31,800 1,140 Climbing Washington Center
Sun 10:58:18 AM 37.3447 -75.9158 203° Southwest 336 387 33,200 1,068 Climbing Washington Center
Sun 10:59:15 AM 37.2592 -75.9625 203° Southwest 336 387 33,900 403 Climbing Washington Center
Sun 11:00:17 AM 37.1714 -75.9986 198° South 336 387 34,000 49 Climbing Washington Center
Sun 11:01:18 AM 37.0814 -76.0319 196° South 336 387 34,000  Level Washington Center
Sun 11:02:16 AM 36.9853 -76.0703 198° South 348 400 34,000  Level Washington Center
Sun 11:03:17 AM 36.8914 -76.0983 193° South 371 427 34,000  Level Washington Center
Sun 11:04:18 AM 36.7953 -76.1367 198° South 371 427 34,000  Level Washington Center
Sun 11:05:16 AM 36.6969 -76.1747 197° South 371 427 34,000  Level Washington Center
Sun 11:06:17 AM 36.5989 -76.2103 196° South 371 427 34,000  Level Washington Center
Sun 11:07:17 AM 36.5028 -76.2456 196° South 371 427 34,000  Level Washington Center
Sun 11:08:16 AM 36.4044 -76.2811 196° South 371 427 34,000  Level Washington Center
Sun 11:09:17 AM 36.3042 -76.3189 197° South 371 427 34,000  Level Washington Center
Sun 11:10:18 AM 36.2036 -76.3564 197° South 371 427 34,000  Level Washington Center
Sun 11:11:18 AM 36.1033 -76.3914 196° South 377 434 34,000  Level Washington Center
Sun 11:12:15 AM 36.0050 -76.4264 196° South 377 434 34,000  Level Washington Center
Sun 11:13:16 AM 35.9044 -76.4639 197° South 377 434 34,000  Level Washington Center
Sun 11:14:16 AM 35.8042 -76.5011 197° South 377 434 34,000  Level Washington Center
Sun 11:15:17 AM 35.7036 -76.5411 198° South 377 434 34,000  Level Washington Center
Sun 11:16:17 AM 35.6011 -76.5756 195° South 382 440 34,000  Level Washington Center
Sun 11:17:18 AM 35.4986 -76.6075 194° South 382 440 34,000  Level Washington Center
Sun 11:18:15 AM 35.3961 -76.6494 198° South 382 440 34,000  Level Washington Center
Sun 11:19:16 AM 35.2933 -76.6889 197° South 382 440 34,000  Level Washington Center
Sun 11:20:16 AM 35.1908 -76.7231 195° South 382 440 34,000  Level Washington Center
Sun 11:21:17 AM 35.0883 -76.7647 198° South 388 447 34,000  Level Washington Center
Sun 11:22:18 AM 34.9836 -76.8014 196° South 388 447 34,000  Level Washington Center
Sun 11:23:18 AM 34.8789 -76.8403 197° South 388 447 34,000  Level Washington Center
Sun 11:24:16 AM 34.7742 -76.8767 196° South 394 453 34,000  Level Washington Center
Sun 11:25:16 AM 34.6714 -76.9128 196° South 394 453 34,000  Level Washington Center
Sun 11:26:16 AM 34.5647 -76.9489 196° South 394 453 34,000  Level Washington Center
Sun 11:27:18 AM 34.4619 -76.9850 196° South 394 453 34,000  Level Washington Center
Sun 11:28:15 AM 34.3572 -77.0236 197° South 399 459 34,000  Level Washington Center
Sun 11:29:16 AM 34.2567 -77.0569 195° South 399 459 34,000  Level Washington Center
Sun 11:30:17 AM 34.1542 -77.0953 197° South 399 459 34,000  Level Washington Center
Sun 11:31:18 AM 34.0494 -77.1283 195° South 399 459 34,000  Level Washington Center
Sun 11:32:16 AM 33.9444 -77.1667 197° South 399 459 34,000  Level Washington Center
Sun 11:33:16 AM 33.8397 -77.2022 196° South 399 459 34,000  Level Washington Center
Sun 11:35:04 AM 33.6506 -77.2692 196° South 397 457 34,000  Level Jacksonville Center
Sun 11:36:04 AM 33.5456 -77.3033 195° South 397 457 34,000  Level Jacksonville Center
Sun 11:37:04 AM 33.4389 -77.3400 196° South 397 457 34,000  Level Jacksonville Center
Sun 11:38:04 AM 33.3319 -77.3789 197° South 397 457 34,000  Level Jacksonville Center
Sun 11:39:04 AM 33.2269 -77.4128 195° South 397 457 34,000  Level Jacksonville Center
Sun 11:40:03 AM 33.1200 -77.4489 196° South 397 457 34,000  Level Jacksonville Center
Sun 11:41:03 AM 33.0111 -77.4853 196° South 402 463 34,000  Level Jacksonville Center
Sun 11:42:04 AM 32.9042 -77.5214 196° South 402 463 34,000  Level Jacksonville Center
Sun 11:43:04 AM 32.7953 -77.5625 198° South 402 463 34,000  Level Jacksonville Center
Sun 11:44:04 AM 32.6883 -77.5986 196° South 402 463 34,000  Level Jacksonville Center
Sun 11:45:04 AM 32.5811 -77.6319 195° South 402 463 34,000  Level Jacksonville Center
Sun 11:46:04 AM 32.4658 -77.6731 197° South 402 463 34,000  Level Jacksonville Center
Sun 11:47:04 AM 32.3569 -77.7089 196° South 402 463 34,000  Level Jacksonville Center
Sun 11:48:04 AM 32.2497 -77.7467 197° South 402 463 34,000  Level Jacksonville Center
Sun 11:49:04 AM 32.1425 -77.7750 193° South 402 463 34,000  Level Jacksonville Center
Sun 11:50:04 AM 32.0356 -77.8128 197° South 407 468 34,000  Level Jacksonville Center
Sun 11:51:04 AM 31.9222 -77.8508 196° South 412 474 34,000  Level Jacksonville Center
Sun 11:52:04 AM 31.8153 -77.8908 198° South 412 474 34,000  Level Jacksonville Center
Sun 11:53:04 AM 31.7061 -77.9261 195° South 412 474 34,000  Level Jacksonville Center
Sun 11:54:04 AM 31.5944 -77.9589 194° South 412 474 34,000  Level Jacksonville Center
Sun 11:55:04 AM 31.4856 -77.9986 197° South 412 474 34,000  Level Jacksonville Center
Sun 11:56:04 AM 31.3742 -78.0336 195° South 412 474 34,000  Level Jacksonville Center
Sun 11:57:04 AM 31.2625 -78.0661 194° South 412 474 34,000  Level Jacksonville Center
Sun 11:58:04 AM 31.1511 -78.0986 194° South 417 480 34,000  Level Jacksonville Center
Sun 11:59:04 AM 31.0381 -78.1431 199° South 417 480 34,000  Level Jacksonville Center
Sun 12:00:04 PM 30.9269 -78.1875 199° South 417 480 34,000  Level Jacksonville Center
Sun 12:01:04 PM 30.8072 -78.2225 194° South 424 488 34,000  Level Jacksonville Center
Sun 12:02:46 PM 30.6297 -78.2825 196° South 420 483 34,000  Level Miami Center
Sun 12:03:46 PM 30.5189 -78.3194 196° South 422 486 34,000  Level Miami Center
Sun 12:04:46 PM 30.3914 -78.3536 193° South 422 486 34,000  Level Miami Center
Sun 12:05:46 PM 30.2661 -78.3639 184° South 435 501 34,000  Level Miami Center
Sun 12:06:46 PM 30.1389 -78.3742 184° South 447 514 34,000  Level Miami Center
Sun 12:07:46 PM 30.0200 -78.3917 187° South 452 520 34,000  Level Miami Center
Sun 12:08:46 PM 29.9008 -78.4044 185° South 446 513 34,000  Level Miami Center
Sun 12:09:46 PM 29.7756 -78.4144 184° South 446 513 34,000  Level Miami Center
Sun 12:10:46 PM 29.6483 -78.4222 183° South 446 513 34,000  Level Miami Center
Sun 12:11:46 PM 29.5294 -78.4253 181° South 445 512 34,000  Level Miami Center
Sun 12:12:46 PM 29.3983 -78.3878 166° South 456 525 34,000  Level Miami Center
Sun 12:13:46 PM 29.2761 -78.3169 153° Southeast 469 540 34,000  Level Miami Center
Sun 12:14:46 PM 29.1600 -78.2369 149° Southeast 469 540 34,000  Level Miami Center
Sun 12:15:46 PM 29.0419 -78.1594 150° Southeast 481 554 34,000  Level Miami Center
Sun 12:16:46 PM 28.9258 -78.0822 150° Southeast 487 560 34,000  Level Miami Center
Sun 12:17:46 PM 28.8033 -78.0028 150° Southeast 493 567 34,000  Level Miami Center
Sun 12:18:46 PM 28.6850 -77.9258 150° Southeast 493 567 34,000  Level Miami Center
Sun 12:19:46 PM 28.5622 -77.8514 152° Southeast 498 573 34,000  Level Miami Center
Sun 12:20:46 PM 28.4331 -77.8242 170° South 479 551 34,000  Level Miami Center
Sun 12:21:46 PM 28.3036 -77.8089 174° South 471 542 34,000  Level Miami Center
Sun 12:22:46 PM 28.1703 -77.7914 173° South 471 542 34,000  Level Miami Center
Sun 12:23:46 PM 28.0431 -77.7764 174° South 471 542 34,000  Level Miami Center
Sun 12:24:46 PM 27.9094 -77.7611 174° South 478 550 34,000  Level Miami Center
Sun 12:25:46 PM 27.7781 -77.7458 174° South 478 550 34,000  Level Miami Center
Sun 12:26:46 PM 27.6464 -77.7308 174° South 485 558 34,000  Level Miami Center
Sun 12:27:46 PM 27.5339 -77.7158 173° South 472 543 34,000 -400 Level Miami Center
Sun 12:28:46 PM 27.4022 -77.7033 175° South 472 543 33,200 -900 Descending Miami Center
Sun 12:29:46 PM 27.2708 -77.6906 175° South 472 543 32,200 -850 Descending Miami Center
Sun 12:30:46 PM 27.1436 -77.6664 170° South 472 543 31,500 -650 Descending Miami Center
Sun 12:31:46 PM 27.0100 -77.6444 172° South 472 543 30,900 -550 Descending Miami Center
Sun 12:32:46 PM 26.8803 -77.6436 180° South 472 543 30,400 -500 Descending Miami Center
Sun 12:33:46 PM 26.7553 -77.6125 167° South 472 543 29,900 -500 Descending Miami Center
Sun 12:34:46 PM 26.6258 -77.6047 177° South 472 543 29,400 -550 Descending Miami Center
Sun 12:35:46 PM 26.5006 -77.5856 172° South 466 536 28,800 -500 Descending Miami Center
Sun 12:36:46 PM 26.3772 -77.5683 173° South 461 531 28,400 -1,250 Descending Miami Center
Sun 12:37:46 PM 26.2519 -77.5583 176° South 461 531 26,300 -2,500 Descending Miami Center
Sun 12:38:46 PM 26.1267 -77.5392 172° South 461 531 23,400 -2,900 Descending Miami Center
Sun 12:39:46 PM 26.0056 -77.5292 176° South 456 525 20,500 -2,800 Descending Miami Center
Sun 12:40:46 PM 25.8803 -77.5125 173° South 439 505 17,800 -2,750 Descending Miami Center
Sun 12:41:46 PM 25.7694 -77.4956 172° South 419 482 15,000 -2,400 Descending Miami Center
Sun 12:42:46 PM 25.6672 -77.4858 175° South 394 453 13,000 -1,050 Descending Miami Center
Sun 12:43:46 PM 25.5775 -77.4808 177° South 357 411 12,900 -100 Descending Miami Center

Login

Don't have an account? Register now (free) for customized features, flight alerts, and more!